Time;durP1;ratioP1;P1;durP2;ratioP2;P2;SDS_P1;SDS_P2;PMS_P1;PMS_P2;Temp;Humidity;BMP_temperature;BMP_pressure;BME280_temperature;BME280_humidity;BME280_pressure;Samples;Min_cycle;Max_cycle;Signal;HPM_P1;HPM_P2
2023/09/29 00:00:17;;;;;;;1.50;1.27;;;;;;;16.43;58.80;93944.63;528159;28;915;-41
2023/09/29 00:00:33;;;;;;;1.60;1.50;;;;;;;16.40;58.75;93942.97;528124;28;925;-41
2023/09/29 00:00:48;;;;;;;1.45;1.35;;;;;;;16.39;58.70;93945.06;528192;28;986;-41
2023/09/29 00:01:04;;;;;;;1.60;1.37;;;;;;;16.38;58.75;93943.56;528295;28;1079;-41
2023/09/29 00:01:19;;;;;;;2.53;1.65;;;;;;;16.39;58.59;93944.31;528163;28;833;-41
2023/09/29 00:01:35;;;;;;;3.00;1.70;;;;;;;16.37;58.61;93939.28;528226;28;809;-41
2023/09/29 00:01:51;;;;;;;1.88;1.30;;;;;;;16.37;58.64;93942.06;528152;28;868;-41
2023/09/29 00:02:06;;;;;;;1.33;1.23;;;;;;;16.37;58.66;93941.34;528182;28;899;-41
2023/09/29 00:02:22;;;;;;;1.67;1.47;;;;;;;16.36;58.67;93937.09;528205;28;860;-41
2023/09/29 00:02:37;;;;;;;1.63;1.35;;;;;;;16.37;58.60;93944.84;528178;28;927;-41
2023/09/29 00:02:55;;;;;;;1.57;1.40;;;;;;;16.37;58.64;93944.16;528216;28;887;-41
2023/09/29 00:03:12;;;;;;;3.03;1.70;;;;;;;16.38;58.72;93946.34;528233;28;955;-41
2023/09/29 00:03:27;;;;;;;2.78;1.60;;;;;;;16.38;58.84;93943.56;528191;28;1153;-41
2023/09/29 00:03:44;;;;;;;1.97;1.50;;;;;;;16.38;58.68;93948.38;528225;28;796;-41
2023/09/29 00:04:01;;;;;;;2.33;1.58;;;;;;;16.38;58.85;93942.81;528177;28;892;-41
2023/09/29 00:04:17;;;;;;;2.22;1.50;;;;;;;16.39;58.93;93944.31;528169;28;978;-41
2023/09/29 00:04:32;;;;;;;2.17;1.60;;;;;;;16.39;58.80;93947.84;528204;28;835;-41
2023/09/29 00:04:48;;;;;;;3.10;1.58;;;;;;;16.40;58.84;93943.72;528158;28;824;-41
2023/09/29 00:05:04;;;;;;;2.57;1.60;;;;;;;16.38;58.80;93935.19;528250;28;943;-41
2023/09/29 00:05:19;;;;;;;3.35;1.75;;;;;;;16.41;58.91;93944.47;528205;28;900;-41
2023/09/29 00:05:35;;;;;;;3.27;1.73;;;;;;;16.42;58.85;93943.13;528162;28;1120;-41
2023/09/29 00:05:50;;;;;;;1.77;1.47;;;;;;;16.43;59.00;93947.41;528173;28;833;-41
2023/09/29 00:06:07;;;;;;;1.88;1.45;;;;;;;16.43;59.02;93944.63;528169;28;876;-41
2023/09/29 00:06:23;;;;;;;1.80;1.70;;;;;;;16.44;59.05;93944.03;528234;28;864;-41
2023/09/29 00:06:38;;;;;;;1.70;1.60;;;;;;;16.43;59.01;93945.38;528139;28;1250;-41
2023/09/29 00:06:54;;;;;;;2.55;1.60;;;;;;;16.44;58.91;93941.25;528262;28;860;-41
2023/09/29 00:07:10;;;;;;;3.00;1.80;;;;;;;16.44;59.03;93941.25;528143;28;959;-41
2023/09/29 00:07:25;;;;;;;2.78;1.60;;;;;;;16.45;59.03;93945.53;528208;28;880;-41
2023/09/29 00:07:42;;;;;;;4.03;1.52;;;;;;;16.45;58.93;93948.31;528198;28;864;-41
2023/09/29 00:07:58;;;;;;;4.30;1.73;;;;;;;16.46;58.89;93946.25;526369;28;2308;-41
2023/09/29 00:08:16;;;;;;;3.50;1.63;;;;;;;16.47;58.99;93947.72;526101;28;856;-41
2023/09/29 00:08:31;;;;;;;3.60;1.52;;;;;;;16.47;58.96;93950.53;526100;28;932;-41
2023/09/29 00:08:46;;;;;;;3.33;1.70;;;;;;;16.47;58.97;93945.69;526103;28;1020;-41
2023/09/29 00:09:12;;;;;;;1.73;1.58;;;;;;;16.48;58.91;93949.94;526172;28;809;-41
2023/09/29 00:09:27;;;;;;;2.60;1.50;;;;;;;16.51;58.94;93939.72;526125;28;872;-41
2023/09/29 00:09:43;;;;;;;2.53;1.50;;;;;;;16.50;58.89;93941.03;526015;28;903;-41
2023/09/29 00:09:58;;;;;;;2.77;1.70;;;;;;;16.50;59.01;93941.75;526090;28;793;-41
2023/09/29 00:10:17;;;;;;;2.83;1.80;;;;;;;16.52;58.92;93949.56;526046;28;1021;-41
2023/09/29 00:10:34;;;;;;;1.75;1.50;;;;;;;16.53;58.76;93946.19;526052;28;1080;-41
2023/09/29 00:10:50;;;;;;;2.25;1.70;;;;;;;16.54;58.81;93944.16;526122;28;916;-41
2023/09/29 00:11:06;;;;;;;3.13;2.00;;;;;;;16.54;58.78;93944.16;526061;28;920;-41
2023/09/29 00:11:22;;;;;;;2.78;1.70;;;;;;;16.55;58.82;93946.34;526165;28;837;-41
2023/09/29 00:11:37;;;;;;;1.97;1.67;;;;;;;16.55;58.99;93942.81;526075;28;877;-41
2023/09/29 00:11:53;;;;;;;3.53;1.77;;;;;;;16.55;59.12;93940.78;526110;28;935;-41
2023/09/29 00:12:08;;;;;;;4.13;1.98;;;;;;;16.55;58.97;93943.56;525956;28;1918;-41
2023/09/29 00:12:23;;;;;;;3.07;1.87;;;;;;;16.53;59.04;93937.09;526189;28;860;-41
2023/09/29 00:12:39;;;;;;;4.20;1.97;;;;;;;16.56;58.99;93947.09;526061;28;843;-41
2023/09/29 00:12:55;;;;;;;4.78;2.17;;;;;;;16.56;58.98;93944.31;526133;28;832;-41
2023/09/29 00:13:11;;;;;;;3.55;2.25;;;;;;;16.56;58.92;93944.31;525992;28;875;-41
2023/09/29 00:13:26;;;;;;;2.63;2.05;;;;;;;16.56;58.92;93950.63;526136;28;849;-41
2023/09/29 00:13:42;;;;;;;2.30;1.80;;;;;;;16.57;58.91;93945.78;526040;28;825;-41
2023/09/29 00:13:57;;;;;;;2.50;1.77;;;;;;;16.53;58.86;93948.97;526104;28;789;-41
2023/09/29 00:14:13;;;;;;;3.40;2.23;;;;;;;16.53;58.76;93943.41;526090;28;848;-41
2023/09/29 00:14:30;;;;;;;4.15;2.10;;;;;;;16.53;58.98;93946.19;526091;28;797;-41
2023/09/29 00:14:45;;;;;;;3.60;1.70;;;;;;;16.54;59.02;93944.16;526059;28;1023;-41
2023/09/29 00:15:02;;;;;;;2.72;1.75;;;;;;;16.54;58.85;93946.94;526056;28;1175;-41
2023/09/29 00:15:19;;;;;;;3.15;1.77;;;;;;;16.55;58.63;93945.59;526035;28;1035;-41
2023/09/29 00:15:34;;;;;;;2.58;1.58;;;;;;;16.56;58.74;93941.53;526122;28;924;-41
2023/09/29 00:15:49;;;;;;;2.35;1.55;;;;;;;16.51;58.71;93940.47;526040;28;944;-41
2023/09/29 00:16:05;;;;;;;1.97;1.70;;;;;;;16.57;58.67;93949.31;526150;28;860;-41
2023/09/29 00:16:20;;;;;;;2.03;1.60;;;;;;;16.58;58.67;93942.44;526098;28;1011;-41
2023/09/29 00:16:35;;;;;;;2.25;1.70;;;;;;;16.58;58.76;93942.44;526121;28;785;-41
2023/09/29 00:16:51;;;;;;;2.70;1.80;;;;;;;16.59;58.81;93943.13;526071;28;849;-41
2023/09/29 00:17:06;;;;;;;2.60;1.60;;;;;;;16.60;58.96;93941.84;526145;28;801;-41
2023/09/29 00:17:22;;;;;;;2.30;1.70;;;;;;;16.59;58.98;93946.66;526027;28;900;-41
2023/09/29 00:17:37;;;;;;;2.33;1.70;;;;;;;16.60;58.80;93944.63;526131;28;855;-41
2023/09/29 00:17:53;;;;;;;2.08;1.73;;;;;;;16.59;58.86;93934.78;526105;28;970;-41
2023/09/29 00:18:08;;;;;;;2.13;1.80;;;;;;;16.60;58.85;93944.63;526090;28;879;-41
2023/09/29 00:18:23;;;;;;;2.30;1.90;;;;;;;16.60;58.87;93942.59;526091;28;911;-41
2023/09/29 00:18:39;;;;;;;3.35;2.30;;;;;;;16.60;59.04;93944.63;526068;28;852;-41
2023/09/29 00:18:55;;;;;;;3.13;2.10;;;;;;;16.60;58.84;93939.78;526097;28;841;-41
2023/09/29 00:19:10;;;;;;;2.30;1.70;;;;;;;16.58;58.90;93942.44;526161;28;829;-41
2023/09/29 00:19:26;;;;;;;3.85;1.73;;;;;;;16.61;59.01;93946.13;526038;28;932;-41
2023/09/29 00:19:42;;;;;;;4.53;1.83;;;;;;;16.60;58.75;93945.38;526051;28;980;-41
2023/09/29 00:19:58;;;;;;;3.28;2.00;;;;;;;16.60;58.89;93948.16;525978;28;872;-41
2023/09/29 00:20:35;;;;;;;2.83;2.00;;;;;;;16.62;58.86;93947.56;526200;28;820;-42
2023/09/29 00:20:50;;;;;;;3.10;2.00;;;;;;;16.62;58.82;93945.53;526134;28;888;-41
2023/09/29 00:21:06;;;;;;;5.53;1.87;;;;;;;16.62;58.98;93945.53;526114;28;1728;-41
2023/09/29 00:21:21;;;;;;;6.18;1.75;;;;;;;16.63;58.96;93944.19;526131;28;817;-41
2023/09/29 00:21:36;;;;;;;4.50;1.97;;;;;;;16.64;58.85;93945.69;526109;28;927;-41
2023/09/29 00:21:52;;;;;;;4.67;2.10;;;;;;;16.64;58.77;93940.13;526093;28;841;-41
2023/09/29 00:22:07;;;;;;;4.15;1.95;;;;;;;16.65;58.73;93940.84;526050;28;967;-41
2023/09/29 00:22:24;;;;;;;2.72;1.80;;;;;;;16.57;58.80;93938.16;526165;28;907;-41
2023/09/29 00:22:40;;;;;;;2.83;1.63;;;;;;;16.65;58.83;93949.94;526066;28;817;-41
2023/09/29 00:22:58;;;;;;;3.97;1.92;;;;;;;16.65;58.88;93946.44;526083;28;837;-41
2023/09/29 00:23:14;;;;;;;3.22;1.75;;;;;;;16.64;58.73;93945.69;526130;28;860;-41
2023/09/29 00:23:30;;;;;;;3.63;1.60;;;;;;;16.65;58.86;93949.94;526039;28;920;-41
2023/09/29 00:23:46;;;;;;;4.32;1.90;;;;;;;16.66;58.82;93947.88;526112;28;895;-41
2023/09/29 00:24:01;;;;;;;3.25;1.90;;;;;;;16.65;58.95;93949.94;526083;28;1103;-41
2023/09/29 00:24:17;;;;;;;2.70;1.87;;;;;;;16.66;58.90;93947.88;526061;28;1563;-41
2023/09/29 00:24:32;;;;;;;3.73;1.93;;;;;;;16.66;58.83;93945.84;526129;28;857;-41
2023/09/29 00:24:47;;;;;;;5.05;1.95;;;;;;;16.66;58.58;93943.06;526081;28;1037;-41
2023/09/29 00:25:05;;;;;;;3.87;1.87;;;;;;;16.66;58.49;93945.09;525998;28;927;-41
2023/09/29 00:25:21;;;;;;;2.08;1.63;;;;;;;16.67;58.55;93946.59;526112;28;814;-41
2023/09/29 00:25:36;;;;;;;1.92;1.50;;;;;;;16.66;58.55;93945.84;526084;28;786;-41
2023/09/29 00:25:51;;;;;;;2.13;1.67;;;;;;;16.67;58.61;93943.81;526101;28;852;-41
2023/09/29 00:26:07;;;;;;;1.93;1.53;;;;;;;16.66;58.52;93943.06;526963;28;1198;-41
2023/09/29 00:26:22;;;;;;;2.43;1.73;;;;;;;16.67;58.60;93944.53;527936;28;1096;-41
2023/09/29 00:26:38;;;;;;;2.60;1.90;;;;;;;16.68;58.88;93942.47;527348;28;1141;-41
2023/09/29 00:26:53;;;;;;;1.77;1.53;;;;;;;16.67;58.68;93944.53;526114;28;781;-41
2023/09/29 00:27:08;;;;;;;4.30;1.80;;;;;;;16.67;58.84;93944.53;526099;28;938;-41
2023/09/29 00:27:24;;;;;;;4.50;1.88;;;;;;;16.66;58.88;93948.63;526106;28;856;-41
2023/09/29 00:27:40;;;;;;;3.13;1.67;;;;;;;16.67;58.81;93943.81;526041;28;891;-41
2023/09/29 00:27:56;;;;;;;3.93;1.87;;;;;;;16.67;58.90;93943.81;526148;28;812;-41
2023/09/29 00:28:12;;;;;;;3.28;1.73;;;;;;;16.67;58.68;93944.53;526078;28;1096;-41
2023/09/29 00:28:27;;;;;;;2.60;1.60;;;;;;;16.68;58.69;93945.25;526476;28;880;-41
2023/09/29 00:28:44;;;;;;;2.20;1.73;;;;;;;16.67;59.00;93941.00;526529;28;844;-41
2023/09/29 00:28:59;;;;;;;3.25;1.65;;;;;;;16.64;58.92;93942.16;526486;28;941;-41
2023/09/29 00:29:15;;;;;;;3.90;1.67;;;;;;;16.66;58.88;93943.06;526562;28;797;-41
2023/09/29 00:29:30;;;;;;;3.88;1.83;;;;;;;16.67;59.05;93946.59;526447;28;955;-41
2023/09/29 00:29:45;;;;;;;3.07;1.90;;;;;;;16.65;58.91;93946.44;526433;28;923;-41
2023/09/29 00:30:04;;;;;;;2.55;1.85;;;;;;;16.64;58.89;93950.53;526463;28;860;-41
2023/09/29 00:30:20;;;;;;;2.38;1.55;;;;;;;16.64;58.88;93950.53;526500;28;856;-41
2023/09/29 00:30:35;;;;;;;2.22;1.60;;;;;;;16.63;58.98;93949.06;526470;28;987;-41
2023/09/29 00:30:50;;;;;;;2.60;1.60;;;;;;;16.63;59.00;93944.19;526510;28;807;-41
2023/09/29 00:31:06;;;;;;;1.65;1.27;;;;;;;16.61;58.93;93946.13;526482;28;904;-41
2023/09/29 00:31:21;;;;;;;1.50;1.30;;;;;;;16.61;58.88;93946.13;526400;28;915;-41
2023/09/29 00:31:37;;;;;;;2.03;1.50;;;;;;;16.61;59.03;93946.84;526454;28;923;-41
2023/09/29 00:31:52;;;;;;;2.13;1.63;;;;;;;16.61;58.70;93940.53;526544;28;757;-42
2023/09/29 00:32:08;;;;;;;1.90;1.67;;;;;;;16.60;58.89;93939.78;526400;28;1922;-41
2023/09/29 00:32:23;;;;;;;2.17;1.50;;;;;;;16.61;58.85;93943.31;526525;28;861;-41
2023/09/29 00:32:43;;;;;;;1.87;1.40;;;;;;;16.58;58.97;93944.47;526466;28;899;-41
2023/09/29 00:32:59;;;;;;;1.63;1.48;;;;;;;16.56;59.02;93941.53;526502;28;809;-41
2023/09/29 00:33:17;;;;;;;2.13;1.55;;;;;;;16.55;58.99;93942.81;526453;28;939;-41
2023/09/29 00:33:33;;;;;;;2.23;1.50;;;;;;;16.55;59.06;93937.25;526435;28;1074;-41
2023/09/29 00:33:48;;;;;;;2.55;1.63;;;;;;;16.54;59.12;93936.53;526447;28;880;-41
2023/09/29 00:34:04;;;;;;;3.87;2.13;;;;;;;16.51;59.17;93940.47;526551;28;806;-41
2023/09/29 00:34:20;;;;;;;4.10;1.92;;;;;;;16.53;59.21;93940.63;526392;28;876;-41
2023/09/29 00:34:36;;;;;;;3.90;1.40;;;;;;;16.52;59.13;93936.34;526475;28;868;-41
2023/09/29 00:34:51;;;;;;;3.80;1.42;;;;;;;16.51;59.10;93937.69;526451;28;912;-41
2023/09/29 00:35:09;;;;;;;2.97;1.70;;;;;;;16.52;58.97;93944.72;526481;28;836;-41
2023/09/29 00:35:24;;;;;;;2.63;1.73;;;;;;;16.51;59.09;93940.47;526456;28;876;-41
2023/09/29 00:35:40;;;;;;;2.30;1.50;;;;;;;16.51;59.28;93940.47;526420;28;931;-41
2023/09/29 00:35:58;;;;;;;1.60;1.47;;;;;;;16.51;59.30;93943.25;526556;28;844;-41
2023/09/29 00:36:13;;;;;;;2.20;1.50;;;;;;;16.50;59.58;93941.75;526489;28;889;-41
2023/09/29 00:36:29;;;;;;;2.70;1.70;;;;;;;16.50;59.31;93941.75;526516;28;915;-41
2023/09/29 00:36:47;;;;;;;2.53;1.70;;;;;;;16.50;59.45;93941.03;526516;28;923;-41
2023/09/29 00:37:04;;;;;;;2.03;1.55;;;;;;;16.49;59.39;93947.88;526420;28;939;-41
2023/09/29 00:37:19;;;;;;;5.68;1.77;;;;;;;16.49;59.56;93942.31;526392;28;927;-41
2023/09/29 00:37:35;;;;;;;6.80;1.60;;;;;;;16.49;59.43;93945.09;526506;28;903;-41
2023/09/29 00:37:51;;;;;;;3.97;1.57;;;;;;;16.49;59.44;93940.28;526396;28;816;-41
2023/09/29 00:38:06;;;;;;;3.15;1.60;;;;;;;16.48;59.51;93938.78;526461;28;944;-41
2023/09/29 00:38:22;;;;;;;3.58;1.52;;;;;;;16.48;59.21;93944.34;526530;28;857;-41
2023/09/29 00:38:37;;;;;;;5.70;1.50;;;;;;;16.48;59.25;93936.00;526488;28;829;-41
2023/09/29 00:38:53;;;;;;;4.55;1.52;;;;;;;16.47;59.48;93934.53;526489;28;876;-41
2023/09/29 00:39:13;;;;;;;2.30;1.60;;;;;;;16.47;59.13;93940.13;526483;28;848;-41
2023/09/29 00:39:29;;;;;;;3.22;1.45;;;;;;;16.47;59.30;93933.78;526430;28;1637;-41
2023/09/29 00:39:44;;;;;;;2.50;1.40;;;;;;;16.46;59.45;93935.09;526510;28;828;-40
2023/09/29 00:40:00;;;;;;;2.47;1.47;;;;;;;16.46;59.41;93941.41;526505;28;773;-41
2023/09/29 00:40:16;;;;;;;2.72;1.55;;;;;;;16.47;59.42;93942.16;526381;28;881;-41
2023/09/29 00:40:31;;;;;;;3.13;1.52;;;;;;;16.47;59.43;93937.31;526292;28;897;-41
2023/09/29 00:40:47;;;;;;;3.55;1.60;;;;;;;16.46;59.50;93941.41;526289;28;923;-41
2023/09/29 00:41:02;;;;;;;3.97;1.60;;;;;;;16.46;59.49;93941.41;526281;28;833;-41
2023/09/29 00:41:17;;;;;;;3.00;1.50;;;;;;;16.45;59.46;93939.94;526344;28;781;-41
2023/09/29 00:41:33;;;;;;;4.03;1.57;;;;;;;16.45;59.51;93933.63;526316;28;798;-41
2023/09/29 00:41:49;;;;;;;4.53;1.60;;;;;;;16.44;59.53;93938.47;526200;28;1029;-41
2023/09/29 00:42:06;;;;;;;2.65;1.20;;;;;;;16.45;59.49;93934.38;526341;28;901;-41
2023/09/29 00:42:22;;;;;;;4.53;1.48;;;;;;;16.43;59.54;93942.59;526358;28;852;-41
2023/09/29 00:42:37;;;;;;;4.35;1.70;;;;;;;16.43;59.50;93936.25;526384;28;900;-41
2023/09/29 00:42:53;;;;;;;2.43;1.50;;;;;;;16.43;59.54;93937.00;526443;28;892;-41
2023/09/29 00:43:08;;;;;;;2.47;1.50;;;;;;;16.44;59.75;93932.91;526492;28;813;-41
2023/09/29 00:43:23;;;;;;;2.43;1.53;;;;;;;16.43;59.68;93942.59;526192;28;1423;-41
2023/09/29 00:43:39;;;;;;;2.10;1.50;;;;;;;16.44;59.67;93940.50;526273;28;801;-41
2023/09/29 00:43:54;;;;;;;3.22;1.80;;;;;;;16.43;59.68;93942.59;526370;28;942;-41
2023/09/29 00:44:10;;;;;;;2.93;1.70;;;;;;;16.42;59.55;93941.09;526204;28;836;-41
2023/09/29 00:44:26;;;;;;;1.65;1.50;;;;;;;16.41;59.58;93938.88;526362;28;856;-41
2023/09/29 00:44:41;;;;;;;2.00;1.73;;;;;;;16.43;59.51;93947.41;526337;28;786;-41
2023/09/29 00:44:56;;;;;;;2.83;1.77;;;;;;;16.42;59.51;93941.09;526265;28;1158;-41
2023/09/29 00:45:12;;;;;;;5.50;1.80;;;;;;;16.42;59.52;93941.09;526300;28;1677;-41
2023/09/29 00:45:28;;;;;;;5.63;1.75;;;;;;;16.42;59.62;93935.53;526438;28;833;-41
2023/09/29 00:45:45;;;;;;;3.10;1.58;;;;;;;16.42;59.48;93938.31;526434;28;916;-41
2023/09/29 00:46:00;;;;;;;2.75;1.55;;;;;;;16.42;59.53;93937.56;526328;28;907;-41
2023/09/29 00:46:16;;;;;;;4.07;1.58;;;;;;;16.41;59.64;93933.31;526285;28;869;-41
2023/09/29 00:46:31;;;;;;;3.73;1.50;;;;;;;16.42;59.52;93937.56;526285;28;970;-41
2023/09/29 00:46:47;;;;;;;2.80;1.50;;;;;;;16.41;59.38;93936.09;526315;28;781;-41
2023/09/29 00:47:05;;;;;;;2.37;1.60;;;;;;;16.41;59.49;93939.63;524244;28;838;-41
2023/09/29 00:47:20;;;;;;;2.40;1.45;;;;;;;16.40;59.62;93935.38;524155;28;1043;-41
2023/09/29 00:47:36;;;;;;;2.57;1.73;;;;;;;16.40;59.40;93934.63;524237;28;899;-41
2023/09/29 00:47:55;;;;;;;1.90;1.70;;;;;;;16.39;59.49;93933.91;524950;28;962;-41
2023/09/29 00:48:12;;;;;;;1.60;1.50;;;;;;;16.40;59.54;93937.41;526280;28;928;-41
2023/09/29 00:48:30;;;;;;;1.63;1.50;;;;;;;16.41;59.56;93941.69;524182;28;920;-41
2023/09/29 00:48:45;;;;;;;1.90;1.70;;;;;;;16.39;59.72;93936.69;524174;28;865;-41
2023/09/29 00:49:01;;;;;;;1.98;1.60;;;;;;;16.39;59.73;93936.69;525977;28;794;-41
2023/09/29 00:49:16;;;;;;;1.60;1.40;;;;;;;16.39;59.78;93933.91;526322;28;793;-41
2023/09/29 00:49:32;;;;;;;1.60;1.40;;;;;;;16.39;59.75;93933.91;526275;28;809;-41
2023/09/29 00:49:48;;;;;;;2.05;1.52;;;;;;;16.39;59.73;93935.94;524201;28;833;-41
2023/09/29 00:50:07;;;;;;;3.03;1.75;;;;;;;16.38;59.57;93935.19;524175;28;948;-41
2023/09/29 00:50:28;;;;;;;2.60;1.67;;;;;;;16.39;59.55;93941.53;525547;28;928;-41
2023/09/29 00:50:44;;;;;;;3.08;1.80;;;;;;;16.37;59.74;93936.50;527103;28;1160;-41
2023/09/29 00:51:00;;;;;;;3.25;1.85;;;;;;;16.38;59.57;93935.19;528385;28;874;-41
2023/09/29 00:51:16;;;;;;;3.83;2.07;;;;;;;16.37;59.51;93935.78;528387;28;924;-41
2023/09/29 00:51:32;;;;;;;3.40;1.77;;;;;;;16.36;59.70;93932.25;528340;28;957;-41
2023/09/29 00:51:47;;;;;;;2.65;1.40;;;;;;;16.36;59.63;93935.03;528277;28;848;-41
2023/09/29 00:52:03;;;;;;;4.50;1.50;;;;;;;16.35;59.60;93939.13;528305;28;1993;-41
2023/09/29 00:52:20;;;;;;;3.22;1.50;;;;;;;16.35;59.56;93935.63;526282;28;821;-41
2023/09/29 00:52:39;;;;;;;1.67;1.58;;;;;;;16.35;59.65;93936.34;524165;28;908;-41
2023/09/29 00:52:59;;;;;;;3.15;1.83;;;;;;;16.31;59.66;93930.44;522098;28;948;-41
2023/09/29 00:53:17;;;;;;;3.85;1.40;;;;;;;16.34;59.70;93936.91;522171;28;865;-41
2023/09/29 00:53:34;;;;;;;4.47;1.45;;;;;;;16.33;59.62;93933.41;522048;28;925;-41
2023/09/29 00:53:50;;;;;;;4.03;1.67;;;;;;;16.32;59.70;93931.94;522091;28;1736;-41
2023/09/29 00:54:08;;;;;;;3.80;1.83;;;;;;;16.30;59.76;93934.56;520155;28;1004;-41
2023/09/29 00:54:23;;;;;;;4.63;1.70;;;;;;;16.29;59.75;93932.31;522592;28;885;-41
2023/09/29 00:54:38;;;;;;;2.47;1.60;;;;;;;16.29;59.83;93935.13;524130;28;826;-41
2023/09/29 00:54:54;;;;;;;3.43;1.53;;;;;;;16.27;59.78;93930.13;524056;28;798;-41
2023/09/29 00:55:13;;;;;;;2.88;1.30;;;;;;;16.25;59.97;93934.78;522038;28;1120;-41
2023/09/29 00:55:29;;;;;;;1.50;1.40;;;;;;;16.24;60.00;93924.97;522008;28;940;-41
2023/09/29 00:55:45;;;;;;;1.73;1.50;;;;;;;16.24;60.06;93936.84;523477;28;869;-41
2023/09/29 00:56:02;;;;;;;3.92;1.73;;;;;;;16.09;59.81;93908.44;524186;28;872;-41
2023/09/29 00:56:18;;;;;;;6.15;1.80;;;;;;;16.20;60.03;93925.38;523500;28;893;-41
2023/09/29 00:56:33;;;;;;;3.77;1.60;;;;;;;16.22;59.94;93925.53;524163;28;861;-41
2023/09/29 00:56:49;;;;;;;2.08;1.45;;;;;;;16.22;60.15;93933.88;524140;28;849;-41
2023/09/29 00:57:05;;;;;;;2.70;1.43;;;;;;;16.06;59.96;93901.94;525388;28;1566;-41
2023/09/29 00:57:21;;;;;;;2.40;1.42;;;;;;;16.22;59.92;93928.31;526240;28;876;-41
2023/09/29 00:57:39;;;;;;;1.70;1.37;;;;;;;16.22;59.84;93927.59;526245;28;1556;-41
2023/09/29 00:57:57;;;;;;;1.77;1.50;;;;;;;16.22;60.15;93928.31;526258;28;872;-41
2023/09/29 00:58:12;;;;;;;1.98;1.40;;;;;;;16.22;60.24;93927.59;527614;28;1755;-41
2023/09/29 00:58:28;;;;;;;1.92;1.33;;;;;;;16.20;60.17;93930.94;528321;28;889;-41
2023/09/29 00:58:43;;;;;;;1.80;1.50;;;;;;;16.20;60.17;93930.22;528475;28;813;-41
2023/09/29 00:58:59;;;;;;;2.97;1.67;;;;;;;16.22;60.31;93933.16;528476;28;844;-41
2023/09/29 00:59:14;;;;;;;3.20;1.60;;;;;;;16.21;60.29;93932.44;528511;28;885;-41
2023/09/29 00:59:31;;;;;;;2.22;1.58;;;;;;;16.19;60.40;93934.31;528311;28;920;-41
2023/09/29 00:59:46;;;;;;;2.50;1.50;;;;;;;16.19;60.27;93939.88;526290;28;798;-41
2023/09/29 01:00:23;;;;;;;2.13;1.40;;;;;;;16.18;60.35;93932.81;526218;28;830;-41
2023/09/29 01:00:40;;;;;;;3.15;1.45;;;;;;;16.15;60.40;93931.94;525956;28;1689;-41
2023/09/29 01:00:55;;;;;;;1.60;1.50;;;;;;;16.15;60.36;93934.00;524189;28;936;-41
2023/09/29 01:01:14;;;;;;;1.65;1.45;;;;;;;16.13;60.33;93926.22;522042;28;908;-41
2023/09/29 01:01:29;;;;;;;4.45;1.60;;;;;;;16.13;60.47;93926.22;523825;28;920;-41
2023/09/29 01:01:45;;;;;;;4.00;1.60;;;;;;;16.13;60.36;93931.03;526007;28;822;-41
2023/09/29 01:02:03;;;;;;;1.92;1.80;;;;;;;16.11;60.58;93926.06;526186;28;900;-41
2023/09/29 01:02:20;;;;;;;2.40;1.70;;;;;;;16.11;60.44;93925.31;524132;28;884;-41
2023/09/29 01:02:37;;;;;;;2.15;1.55;;;;;;;16.11;60.58;93928.84;524131;28;1104;-41
2023/09/29 01:02:52;;;;;;;2.08;1.67;;;;;;;16.10;60.44;93927.34;525946;28;1355;-41
2023/09/29 01:03:10;;;;;;;2.40;1.70;;;;;;;16.10;60.86;93926.59;527873;28;865;-41
2023/09/29 01:03:27;;;;;;;1.85;1.42;;;;;;;16.10;60.56;93929.38;528353;28;893;-41
2023/09/29 01:03:42;;;;;;;1.75;1.42;;;;;;;16.09;60.71;93923.06;528289;28;964;-41
2023/09/29 01:03:58;;;;;;;1.90;1.60;;;;;;;16.09;60.50;93925.84;528385;28;789;-41
2023/09/29 01:04:15;;;;;;;1.58;1.48;;;;;;;16.10;60.62;93926.59;528198;28;2414;-41
2023/09/29 01:04:32;;;;;;;2.00;1.40;;;;;;;16.09;60.71;93925.16;528431;28;987;-41
2023/09/29 01:04:48;;;;;;;4.88;1.58;;;;;;;16.04;60.60;93924.06;528474;28;903;-41
2023/09/29 01:05:04;;;;;;;4.35;1.60;;;;;;;16.06;60.49;93927.03;528512;28;1749;-41
2023/09/29 01:05:19;;;;;;;1.92;1.45;;;;;;;16.08;60.64;93926.44;528508;28;820;-41
2023/09/29 01:05:38;;;;;;;4.43;1.63;;;;;;;16.07;60.50;93927.78;528519;28;824;-41
2023/09/29 01:05:54;;;;;;;3.97;1.73;;;;;;;16.06;60.60;93931.84;528465;28;979;-41
2023/09/29 01:06:09;;;;;;;4.05;1.70;;;;;;;16.06;60.53;93932.59;528491;28;848;-41
2023/09/29 01:06:25;;;;;;;5.78;1.92;;;;;;;16.05;60.66;93931.09;528571;27;892;-41
2023/09/29 01:06:40;;;;;;;4.10;1.80;;;;;;;16.05;60.61;93930.38;528453;28;995;-41
2023/09/29 01:06:56;;;;;;;2.60;1.60;;;;;;;16.04;60.81;93926.88;528355;28;892;-41
2023/09/29 01:07:13;;;;;;;3.72;1.58;;;;;;;16.04;60.74;93929.66;528312;28;939;-41
2023/09/29 01:07:28;;;;;;;4.60;1.92;;;;;;;16.03;60.83;93928.16;528324;28;921;-41
2023/09/29 01:07:43;;;;;;;5.17;1.80;;;;;;;16.01;60.69;93924.47;526152;28;857;-41
2023/09/29 01:07:59;;;;;;;4.30;1.50;;;;;;;16.00;60.84;93929.31;526207;28;865;-41
2023/09/29 01:08:23;;;;;;;1.70;1.60;;;;;;;16.00;60.82;93923.00;526296;28;825;-41
2023/09/29 01:08:39;;;;;;;1.90;1.52;;;;;;;15.97;60.76;93924.13;526225;28;825;-41
2023/09/29 01:08:56;;;;;;;3.10;1.60;;;;;;;15.96;60.84;93917.81;528210;28;861;-41
2023/09/29 01:09:11;;;;;;;3.10;1.73;;;;;;;15.94;60.91;93926.03;528326;28;956;-41
2023/09/29 01:09:27;;;;;;;1.80;1.67;;;;;;;15.92;60.84;93918.25;526277;28;857;-41
2023/09/29 01:09:42;;;;;;;4.37;1.43;;;;;;;15.91;60.83;93921.63;527988;28;908;-41
2023/09/29 01:09:57;;;;;;;5.00;1.67;;;;;;;15.90;61.05;93925.69;528271;28;869;-41
2023/09/29 01:10:13;;;;;;;3.65;1.90;;;;;;;15.88;61.11;93917.91;528343;28;923;-41
2023/09/29 01:10:29;;;;;;;3.10;1.73;;;;;;;15.88;61.10;93917.91;528277;28;880;-41
2023/09/29 01:10:44;;;;;;;4.87;2.00;;;;;;;15.87;61.11;93919.22;528314;28;826;-41
2023/09/29 01:10:59;;;;;;;5.40;1.93;;;;;;;15.86;61.20;93914.97;528357;28;793;-41
2023/09/29 01:11:15;;;;;;;2.17;1.38;;;;;;;15.85;61.20;93919.06;528401;28;853;-41
2023/09/29 01:11:45;;;;;;;1.37;1.27;;;;;;;15.85;61.17;93921.13;528426;28;903;-41
2023/09/29 01:12:00;;;;;;;2.60;1.75;;;;;;;15.85;61.15;93924.63;528400;28;1913;-41
2023/09/29 01:12:27;;;;;;;2.10;1.60;;;;;;;15.83;61.18;93918.19;528527;28;861;-41
2023/09/29 01:12:43;;;;;;;1.50;1.40;;;;;;;15.84;61.19;93925.94;528283;28;757;-41
2023/09/29 01:12:58;;;;;;;2.42;1.50;;;;;;;15.86;61.13;93923.31;528307;28;822;-41
2023/09/29 01:13:15;;;;;;;2.97;1.43;;;;;;;15.86;61.05;93930.94;528420;28;817;-41
2023/09/29 01:13:30;;;;;;;4.68;1.65;;;;;;;15.86;61.00;93928.91;528298;28;1103;-41
2023/09/29 01:13:45;;;;;;;3.83;1.80;;;;;;;15.86;60.96;93928.16;528300;28;905;-41
2023/09/29 01:14:01;;;;;;;2.30;1.63;;;;;;;15.86;60.98;93926.13;528320;28;789;-41
2023/09/29 01:14:17;;;;;;;3.47;1.50;;;;;;;15.85;60.79;93924.63;528291;28;923;-41
2023/09/29 01:14:32;;;;;;;4.00;1.80;;;;;;;15.85;60.96;93927.41;528366;28;864;-41
2023/09/29 01:14:48;;;;;;;2.37;1.60;;;;;;;15.84;60.89;93923.16;528403;28;891;-42
2023/09/29 01:15:05;;;;;;;3.10;1.58;;;;;;;15.84;60.85;93928.00;528573;28;852;-41
2023/09/29 01:15:20;;;;;;;2.67;1.50;;;;;;;15.84;60.89;93922.41;528472;28;932;-41
2023/09/29 01:15:36;;;;;;;1.90;1.40;;;;;;;15.84;60.99;93922.41;528462;28;782;-41
2023/09/29 01:15:54;;;;;;;2.35;1.55;;;;;;;15.83;60.98;93924.47;528436;28;935;-41
2023/09/29 01:16:09;;;;;;;2.78;1.80;;;;;;;15.82;60.92;93920.22;528474;28;824;-41
2023/09/29 01:16:24;;;;;;;2.20;1.60;;;;;;;15.83;60.94;93923.75;528524;28;785;-41
2023/09/29 01:16:40;;;;;;;1.70;1.30;;;;;;;15.82;60.98;93927.81;528416;28;951;-40
2023/09/29 01:16:56;;;;;;;2.15;1.48;;;;;;;15.81;60.92;93927.09;528432;28;873;-40
2023/09/29 01:17:11;;;;;;;2.20;1.50;;;;;;;15.80;60.97;93928.41;528460;27;931;-41
2023/09/29 01:17:26;;;;;;;2.10;1.48;;;;;;;15.79;61.05;93926.91;528539;28;867;-41
2023/09/29 01:17:43;;;;;;;1.73;1.50;;;;;;;15.78;60.89;93931.03;528465;28;884;-41
2023/09/29 01:17:59;;;;;;;1.40;1.30;;;;;;;15.78;60.94;93922.69;528448;28;906;-41
2023/09/29 01:18:16;;;;;;;2.93;1.57;;;;;;;15.77;60.97;93923.97;528508;28;893;-41
2023/09/29 01:18:31;;;;;;;3.03;1.42;;;;;;;15.74;61.18;93927.16;528439;28;860;-41
2023/09/29 01:18:47;;;;;;;1.98;1.10;;;;;;;15.75;61.15;93923.06;528442;28;856;-41
2023/09/29 01:19:02;;;;;;;1.40;1.30;;;;;;;15.73;61.13;93918.06;528227;28;1084;-41
2023/09/29 01:19:20;;;;;;;2.90;1.30;;;;;;;15.72;61.17;93924.94;528278;28;1103;-41
2023/09/29 01:19:35;;;;;;;1.92;1.13;;;;;;;15.73;61.30;93920.84;528365;28;884;-41